Huvudsida
METAR-TAF:

METAR-TAF

Flygplatser :

Patna flygplats

Patna, Indien

latitud: 25-36N, longitud: 085-06E, höjd: 51 m

Aktuellt väderrapport

Denna rapport gjordes för 24 minuter sedan, klockan 09:30 UTC
Vind 10 kt från ost/nordost i byarna ända upp till 20 kt
Temperatur 34°C
Fuktighet 60%
Tryck 1002 hPa
Sikt: 6000 m
Spridda moln på en höjd av 10000 ft

METAR: VEPT 200930Z 06010G20KT 6000 SCT100 34/25 Q1002 NOSIG

Tid: 15:24 (09:54 UTC)

Väderprognos

Denna rapport gjordes för 1 timme och 54 minuter sedan, klockan 08:00 UTC
Prognos gäller från 20 kl. 09 UTC till 20 kl. 18 UTC
Vind 8 kt från ost i byarna ända upp till 18 kt
Sikt: 5000 m
Spridda moln på en höjd av 1800 ft
Spridda moln på en höjd av 10000 ft
torrdis
Blir
från 20 kl. 12 UTC till 20 kl. 14 UTC
Vind 6 kt från ost
Blir
från 20 kl. 15 UTC till 20 kl. 17 UTC
Sikt: 2800 m
torrdis,

TAF: VEPT 200800Z 2009/2018 09008G18KT 5000 HZ SCT018 SCT100 BECMG 2012/2014 09006KT BECMG 2015/2017 2800 HZ

Aktuella väderrapporter och prognoser från 4000 flygplatser (METAR- och TAF-rapporter).

De tillgängliga stationerna syns som gula och röda prickar på kartan.

För musen över prickarna för att se namnen på stationerna.

Klicka sedan för att få väderrapporter och prognoser.

För att ändra kartan: Klicka på de gröna knapparna med ett svart kors på för att zooma in; den gröna knappen med ett streck på för att zooma ut; eller på de gröna pilarna för angränsande kartor.


METAR-TAF: